sensor_id;sensor_type;location;lat;lon;timestamp;pressure;altitude;pressure_sealevel;temperature
47484;BMP280;54076;50.322;18.650;2023-05-16T00:34:25;97302.89;;;7.72
47484;BMP280;54076;50.322;18.650;2023-05-16T00:39:26;97302.54;;;7.65
47484;BMP280;54076;50.322;18.650;2023-05-16T00:44:27;97307.09;;;7.68
47484;BMP280;54076;50.322;18.650;2023-05-16T00:49:29;97308.20;;;7.57
47484;BMP280;54076;50.322;18.650;2023-05-16T00:54:30;97308.66;;;7.59
47484;BMP280;54076;50.322;18.650;2023-05-16T00:59:31;97303.17;;;7.58
47484;BMP280;54076;50.322;18.650;2023-05-16T01:04:33;97298.59;;;7.58
47484;BMP280;54076;50.322;18.650;2023-05-16T01:09:34;97300.55;;;7.55
47484;BMP280;54076;50.322;18.650;2023-05-16T01:15:12;97292.05;;;7.36
47484;BMP280;54076;50.322;18.650;2023-05-16T01:26:14;97302.21;;;7.40
47484;BMP280;54076;50.322;18.650;2023-05-16T01:31:16;97300.02;;;7.31
47484;BMP280;54076;50.322;18.650;2023-05-16T01:42:36;97296.02;;;7.30
47484;BMP280;54076;50.322;18.650;2023-05-16T01:47:40;97301.69;;;7.18
47484;BMP280;54076;50.322;18.650;2023-05-16T01:52:57;97306.56;;;7.13
47484;BMP280;54076;50.322;18.650;2023-05-16T01:58:00;97296.75;;;6.94
47484;BMP280;54076;50.322;18.650;2023-05-16T02:03:02;97303.98;;;6.97
47484;BMP280;54076;50.322;18.650;2023-05-16T02:08:07;97301.39;;;6.86
47484;BMP280;54076;50.322;18.650;2023-05-16T02:13:08;97301.25;;;6.90
47484;BMP280;54076;50.322;18.650;2023-05-16T02:18:09;97306.39;;;6.90
47484;BMP280;54076;50.322;18.650;2023-05-16T02:23:10;97312.34;;;6.82
47484;BMP280;54076;50.322;18.650;2023-05-16T02:28:12;97310.09;;;6.69
47484;BMP280;54076;50.322;18.650;2023-05-16T02:33:13;97317.41;;;6.64
47484;BMP280;54076;50.322;18.650;2023-05-16T02:38:14;97316.48;;;6.71
47484;BMP280;54076;50.322;18.650;2023-05-16T02:43:17;97317.60;;;6.66
47484;BMP280;54076;50.322;18.650;2023-05-16T02:48:18;97316.52;;;6.69
47484;BMP280;54076;50.322;18.650;2023-05-16T02:53:19;97316.60;;;6.66
47484;BMP280;54076;50.322;18.650;2023-05-16T02:58:20;97319.45;;;6.73
47484;BMP280;54076;50.322;18.650;2023-05-16T03:03:21;97325.89;;;6.67
47484;BMP280;54076;50.322;18.650;2023-05-16T03:08:22;97326.39;;;6.52
47484;BMP280;54076;50.322;18.650;2023-05-16T03:13:23;97328.10;;;6.50
47484;BMP280;54076;50.322;18.650;2023-05-16T03:18:24;97334.13;;;6.49
47484;BMP280;54076;50.322;18.650;2023-05-16T03:23:25;97331.37;;;6.56
47484;BMP280;54076;50.322;18.650;2023-05-16T03:28:26;97330.83;;;6.64
47484;BMP280;54076;50.322;18.650;2023-05-16T03:33:27;97341.23;;;6.71
47484;BMP280;54076;50.322;18.650;2023-05-16T03:38:28;97347.05;;;6.83
47484;BMP280;54076;50.322;18.650;2023-05-16T03:43:29;97356.04;;;6.75
47484;BMP280;54076;50.322;18.650;2023-05-16T03:48:30;97358.42;;;6.69
47484;BMP280;54076;50.322;18.650;2023-05-16T03:53:31;97362.85;;;6.69
47484;BMP280;54076;50.322;18.650;2023-05-16T03:58:32;97362.61;;;6.82
47484;BMP280;54076;50.322;18.650;2023-05-16T04:03:33;97366.30;;;6.86
47484;BMP280;54076;50.322;18.650;2023-05-16T04:08:34;97365.71;;;6.89
47484;BMP280;54076;50.322;18.650;2023-05-16T04:13:35;97370.61;;;6.96
47484;BMP280;54076;50.322;18.650;2023-05-16T04:18:36;97371.30;;;7.00
47484;BMP280;54076;50.322;18.650;2023-05-16T04:23:37;97373.66;;;7.02
47484;BMP280;54076;50.322;18.650;2023-05-16T04:28:39;97377.33;;;7.16
47484;BMP280;54076;50.322;18.650;2023-05-16T04:33:40;97379.63;;;7.41
47484;BMP280;54076;50.322;18.650;2023-05-16T04:38:41;97383.65;;;7.35
47484;BMP280;54076;50.322;18.650;2023-05-16T04:43:46;97395.49;;;7.26
47484;BMP280;54076;50.322;18.650;2023-05-16T04:48:47;97404.09;;;7.42
47484;BMP280;54076;50.322;18.650;2023-05-16T04:53:48;97411.39;;;7.47
47484;BMP280;54076;50.322;18.650;2023-05-16T04:58:49;97417.98;;;7.67
47484;BMP280;54076;50.322;18.650;2023-05-16T05:03:50;97430.04;;;7.89
47484;BMP280;54076;50.322;18.650;2023-05-16T05:08:52;97422.02;;;8.02
47484;BMP280;54076;50.322;18.650;2023-05-16T05:13:54;97426.99;;;8.11
47484;BMP280;54076;50.322;18.650;2023-05-16T05:18:55;97431.20;;;8.40
47484;BMP280;54076;50.322;18.650;2023-05-16T05:23:56;97431.58;;;8.67
47484;BMP280;54076;50.322;18.650;2023-05-16T05:28:57;97432.77;;;8.80
47484;BMP280;54076;50.322;18.650;2023-05-16T05:33:58;97433.63;;;8.91
47484;BMP280;54076;50.322;18.650;2023-05-16T05:38:59;97436.05;;;9.01
47484;BMP280;54076;50.322;18.650;2023-05-16T05:44:00;97431.10;;;9.17
47484;BMP280;54076;50.322;18.650;2023-05-16T05:49:01;97434.66;;;9.26
47484;BMP280;54076;50.322;18.650;2023-05-16T05:54:02;97434.77;;;9.39
47484;BMP280;54076;50.322;18.650;2023-05-16T05:59:03;97439.39;;;9.60
47484;BMP280;54076;50.322;18.650;2023-05-16T06:04:04;97430.91;;;9.78
47484;BMP280;54076;50.322;18.650;2023-05-16T06:09:06;97435.13;;;9.78
47484;BMP280;54076;50.322;18.650;2023-05-16T06:14:07;97439.45;;;9.97
47484;BMP280;54076;50.322;18.650;2023-05-16T06:19:08;97438.23;;;10.16
47484;BMP280;54076;50.322;18.650;2023-05-16T06:24:09;97444.14;;;10.39
47484;BMP280;54076;50.322;18.650;2023-05-16T06:29:11;97438.91;;;10.40
47484;BMP280;54076;50.322;18.650;2023-05-16T06:34:13;97445.98;;;10.50
47484;BMP280;54076;50.322;18.650;2023-05-16T06:39:14;97450.02;;;10.59
47484;BMP280;54076;50.322;18.650;2023-05-16T06:44:15;97453.77;;;10.53
47484;BMP280;54076;50.322;18.650;2023-05-16T06:49:16;97449.66;;;10.69
47484;BMP280;54076;50.322;18.650;2023-05-16T06:54:18;97447.83;;;10.76
47484;BMP280;54076;50.322;18.650;2023-05-16T06:59:19;97432.95;;;10.83
47484;BMP280;54076;50.322;18.650;2023-05-16T07:04:20;97435.31;;;10.98
47484;BMP280;54076;50.322;18.650;2023-05-16T07:09:21;97443.14;;;10.86
47484;BMP280;54076;50.322;18.650;2023-05-16T07:14:22;97450.91;;;11.03
47484;BMP280;54076;50.322;18.650;2023-05-16T07:19:23;97455.91;;;11.16
47484;BMP280;54076;50.322;18.650;2023-05-16T07:24:24;97443.28;;;11.37
47484;BMP280;54076;50.322;18.650;2023-05-16T07:29:25;97448.55;;;11.52
47484;BMP280;54076;50.322;18.650;2023-05-16T07:34:26;97449.37;;;11.81
47484;BMP280;54076;50.322;18.650;2023-05-16T07:39:27;97463.33;;;11.86
47484;BMP280;54076;50.322;18.650;2023-05-16T07:44:28;97469.96;;;11.94
47484;BMP280;54076;50.322;18.650;2023-05-16T07:49:29;97469.14;;;11.95
47484;BMP280;54076;50.322;18.650;2023-05-16T07:54:31;97479.73;;;12.06
47484;BMP280;54076;50.322;18.650;2023-05-16T07:59:33;97489.99;;;12.38
47484;BMP280;54076;50.322;18.650;2023-05-16T08:04:34;97500.23;;;12.68
47484;BMP280;54076;50.322;18.650;2023-05-16T08:09:35;97503.59;;;12.60
47484;BMP280;54076;50.322;18.650;2023-05-16T08:14:36;97508.39;;;12.78
47484;BMP280;54076;50.322;18.650;2023-05-16T08:19:37;97523.94;;;12.42
47484;BMP280;54076;50.322;18.650;2023-05-16T08:24:38;97521.55;;;12.77
47484;BMP280;54076;50.322;18.650;2023-05-16T08:29:39;97526.12;;;13.08
47484;BMP280;54076;50.322;18.650;2023-05-16T08:34:40;97528.95;;;13.11
47484;BMP280;54076;50.322;18.650;2023-05-16T08:39:41;97527.65;;;13.33
47484;BMP280;54076;50.322;18.650;2023-05-16T08:44:42;97533.27;;;13.27
47484;BMP280;54076;50.322;18.650;2023-05-16T08:49:46;97527.40;;;13.52
47484;BMP280;54076;50.322;18.650;2023-05-16T08:54:49;97519.75;;;13.69
47484;BMP280;54076;50.322;18.650;2023-05-16T08:59:51;97521.70;;;13.86
47484;BMP280;54076;50.322;18.650;2023-05-16T09:04:55;97516.54;;;14.05
47484;BMP280;54076;50.322;18.650;2023-05-16T09:09:57;97515.05;;;13.99
47484;BMP280;54076;50.322;18.650;2023-05-16T09:15:01;97516.35;;;14.42
47484;BMP280;54076;50.322;18.650;2023-05-16T09:20:17;97517.52;;;15.03
47484;BMP280;54076;50.322;18.650;2023-05-16T09:25:19;97519.26;;;15.25
47484;BMP280;54076;50.322;18.650;2023-05-16T09:30:22;97522.07;;;15.58
47484;BMP280;54076;50.322;18.650;2023-05-16T09:35:27;97525.30;;;15.62
47484;BMP280;54076;50.322;18.650;2023-05-16T09:40:28;97524.16;;;15.90
47484;BMP280;54076;50.322;18.650;2023-05-16T09:45:30;97533.11;;;15.50
47484;BMP280;54076;50.322;18.650;2023-05-16T09:50:36;97542.48;;;15.84
47484;BMP280;54076;50.322;18.650;2023-05-16T09:55:37;97539.98;;;16.38
47484;BMP280;54076;50.322;18.650;2023-05-16T10:00:38;97536.23;;;16.08
47484;BMP280;54076;50.322;18.650;2023-05-16T10:05:40;97542.59;;;15.55
47484;BMP280;54076;50.322;18.650;2023-05-16T10:10:42;97527.45;;;16.26
47484;BMP280;54076;50.322;18.650;2023-05-16T10:15:44;97526.19;;;16.37
47484;BMP280;54076;50.322;18.650;2023-05-16T10:20:47;97517.26;;;16.35
47484;BMP280;54076;50.322;18.650;2023-05-16T10:25:49;97525.24;;;15.82
47484;BMP280;54076;50.322;18.650;2023-05-16T10:30:50;97527.21;;;16.41
47484;BMP280;54076;50.322;18.650;2023-05-16T10:35:51;97528.52;;;16.62
47484;BMP280;54076;50.322;18.650;2023-05-16T10:40:53;97527.77;;;16.85
47484;BMP280;54076;50.322;18.650;2023-05-16T10:46:07;97521.73;;;17.04
47484;BMP280;54076;50.322;18.650;2023-05-16T10:51:37;97522.83;;;17.29
47484;BMP280;54076;50.322;18.650;2023-05-16T10:56:38;97523.70;;;17.03
47484;BMP280;54076;50.322;18.650;2023-05-16T11:01:39;97523.22;;;17.32
47484;BMP280;54076;50.322;18.650;2023-05-16T11:17:20;97500.15;;;16.96
47484;BMP280;54076;50.322;18.650;2023-05-16T11:22:25;97495.30;;;16.58
47484;BMP280;54076;50.322;18.650;2023-05-16T11:27:45;97483.23;;;16.58
47484;BMP280;54076;50.322;18.650;2023-05-16T11:32:47;97487.24;;;16.38
47484;BMP280;54076;50.322;18.650;2023-05-16T11:37:48;97482.23;;;16.37
47484;BMP280;54076;50.322;18.650;2023-05-16T11:42:49;97486.99;;;16.37
47484;BMP280;54076;50.322;18.650;2023-05-16T11:47:51;97483.84;;;16.23
47484;BMP280;54076;50.322;18.650;2023-05-16T11:52:53;97485.90;;;16.23
47484;BMP280;54076;50.322;18.650;2023-05-16T11:57:57;97486.53;;;16.48
47484;BMP280;54076;50.322;18.650;2023-05-16T12:03:03;97487.09;;;16.31
47484;BMP280;54076;50.322;18.650;2023-05-16T12:08:04;97487.30;;;16.24
47484;BMP280;54076;50.322;18.650;2023-05-16T12:13:06;97487.25;;;16.45
47484;BMP280;54076;50.322;18.650;2023-05-16T12:18:09;97487.42;;;16.75
47484;BMP280;54076;50.322;18.650;2023-05-16T12:23:11;97487.73;;;17.01
47484;BMP280;54076;50.322;18.650;2023-05-16T12:28:13;97486.29;;;17.07
47484;BMP280;54076;50.322;18.650;2023-05-16T12:33:15;97476.64;;;16.85
47484;BMP280;54076;50.322;18.650;2023-05-16T12:38:18;97477.40;;;16.84
47484;BMP280;54076;50.322;18.650;2023-05-16T12:43:21;97471.58;;;17.12
47484;BMP280;54076;50.322;18.650;2023-05-16T12:48:30;97463.48;;;17.08
47484;BMP280;54076;50.322;18.650;2023-05-16T12:53:48;97462.29;;;16.97
47484;BMP280;54076;50.322;18.650;2023-05-16T12:58:49;97456.02;;;16.50
47484;BMP280;54076;50.322;18.650;2023-05-16T13:03:52;97456.00;;;16.50
47484;BMP280;54076;50.322;18.650;2023-05-16T13:08:53;97449.83;;;16.36
47484;BMP280;54076;50.322;18.650;2023-05-16T13:13:55;97447.91;;;15.84
47484;BMP280;54076;50.322;18.650;2023-05-16T13:18:56;97452.70;;;15.91
47484;BMP280;54076;50.322;18.650;2023-05-16T13:23:57;97451.42;;;15.55
47484;BMP280;54076;50.322;18.650;2023-05-16T13:28:58;97449.89;;;15.34
47484;BMP280;54076;50.322;18.650;2023-05-16T13:34:01;97446.39;;;15.35
47484;BMP280;54076;50.322;18.650;2023-05-16T13:39:02;97442.69;;;15.20
47484;BMP280;54076;50.322;18.650;2023-05-16T13:44:04;97434.61;;;15.17
47484;BMP280;54076;50.322;18.650;2023-05-16T13:49:05;97435.32;;;14.93
47484;BMP280;54076;50.322;18.650;2023-05-16T13:54:06;97434.95;;;14.91
47484;BMP280;54076;50.322;18.650;2023-05-16T13:59:07;97433.58;;;14.86
47484;BMP280;54076;50.322;18.650;2023-05-16T14:04:08;97431.90;;;14.64
47484;BMP280;54076;50.322;18.650;2023-05-16T14:09:09;97432.79;;;14.43
47484;BMP280;54076;50.322;18.650;2023-05-16T14:14:12;97441.54;;;14.35
47484;BMP280;54076;50.322;18.650;2023-05-16T14:19:13;97451.55;;;14.30
47484;BMP280;54076;50.322;18.650;2023-05-16T14:24:14;97466.06;;;14.10
47484;BMP280;54076;50.322;18.650;2023-05-16T14:29:15;97470.89;;;13.66
47484;BMP280;54076;50.322;18.650;2023-05-16T14:34:16;97479.98;;;13.43
47484;BMP280;54076;50.322;18.650;2023-05-16T14:39:17;97489.38;;;12.96
47484;BMP280;54076;50.322;18.650;2023-05-16T14:44:18;97489.15;;;12.55
47484;BMP280;54076;50.322;18.650;2023-05-16T14:49:21;97493.33;;;12.38
47484;BMP280;54076;50.322;18.650;2023-05-16T14:54:22;97497.99;;;11.81
47484;BMP280;54076;50.322;18.650;2023-05-16T14:59:23;97500.31;;;11.59
47484;BMP280;54076;50.322;18.650;2023-05-16T15:04:26;97514.82;;;11.38
47484;BMP280;54076;50.322;18.650;2023-05-16T15:09:28;97526.14;;;11.43
47484;BMP280;54076;50.322;18.650;2023-05-16T15:14:29;97525.58;;;11.46
47484;BMP280;54076;50.322;18.650;2023-05-16T15:19:30;97527.35;;;11.10
47484;BMP280;54076;50.322;18.650;2023-05-16T15:24:31;97526.39;;;11.11
47484;BMP280;54076;50.322;18.650;2023-05-16T15:29:32;97527.20;;;11.03
47484;BMP280;54076;50.322;18.650;2023-05-16T15:34:34;97517.64;;;10.82
47484;BMP280;54076;50.322;18.650;2023-05-16T15:39:35;97512.65;;;10.80
47484;BMP280;54076;50.322;18.650;2023-05-16T15:44:36;97510.31;;;10.83
47484;BMP280;54076;50.322;18.650;2023-05-16T15:49:37;97510.83;;;10.74
47484;BMP280;54076;50.322;18.650;2023-05-16T15:54:39;97505.83;;;10.63
47484;BMP280;54076;50.322;18.650;2023-05-16T15:59:40;97503.62;;;10.48
47484;BMP280;54076;50.322;18.650;2023-05-16T16:04:41;97495.46;;;10.47
47484;BMP280;54076;50.322;18.650;2023-05-16T16:09:42;97484.55;;;10.45
47484;BMP280;54076;50.322;18.650;2023-05-16T16:14:43;97485.56;;;10.42
47484;BMP280;54076;50.322;18.650;2023-05-16T16:19:44;97487.48;;;10.38
47484;BMP280;54076;50.322;18.650;2023-05-16T16:24:45;97490.06;;;10.29
47484;BMP280;54076;50.322;18.650;2023-05-16T16:29:46;97495.17;;;10.29
47484;BMP280;54076;50.322;18.650;2023-05-16T16:34:47;97497.65;;;10.23
47484;BMP280;54076;50.322;18.650;2023-05-16T16:39:49;97512.30;;;10.21
47484;BMP280;54076;50.322;18.650;2023-05-16T16:44:53;97516.22;;;10.21
47484;BMP280;54076;50.322;18.650;2023-05-16T16:49:54;97522.18;;;10.18
47484;BMP280;54076;50.322;18.650;2023-05-16T16:54:55;97526.21;;;10.16
47484;BMP280;54076;50.322;18.650;2023-05-16T16:59:56;97528.76;;;10.12
47484;BMP280;54076;50.322;18.650;2023-05-16T17:04:59;97525.98;;;10.13
47484;BMP280;54076;50.322;18.650;2023-05-16T17:10:01;97529.38;;;9.98
47484;BMP280;54076;50.322;18.650;2023-05-16T17:15:05;97532.47;;;10.04
47484;BMP280;54076;50.322;18.650;2023-05-16T17:20:07;97529.33;;;9.97
47484;BMP280;54076;50.322;18.650;2023-05-16T17:25:09;97533.41;;;9.97
47484;BMP280;54076;50.322;18.650;2023-05-16T17:30:10;97536.42;;;9.86
47484;BMP280;54076;50.322;18.650;2023-05-16T17:35:12;97539.38;;;9.79
47484;BMP280;54076;50.322;18.650;2023-05-16T17:40:14;97544.67;;;9.69
47484;BMP280;54076;50.322;18.650;2023-05-16T17:45:17;97548.84;;;9.83
47484;BMP280;54076;50.322;18.650;2023-05-16T17:50:18;97556.66;;;9.67
47484;BMP280;54076;50.322;18.650;2023-05-16T17:55:21;97552.33;;;9.53
47484;BMP280;54076;50.322;18.650;2023-05-16T18:00:23;97555.06;;;9.57
47484;BMP280;54076;50.322;18.650;2023-05-16T18:05:24;97559.06;;;9.54
47484;BMP280;54076;50.322;18.650;2023-05-16T18:10:25;97554.00;;;9.50
47484;BMP280;54076;50.322;18.650;2023-05-16T18:15:26;97555.95;;;9.51
47484;BMP280;54076;50.322;18.650;2023-05-16T18:20:37;97560.13;;;9.58
47484;BMP280;54076;50.322;18.650;2023-05-16T18:25:38;97563.39;;;9.53
47484;BMP280;54076;50.322;18.650;2023-05-16T18:30:39;97565.15;;;9.58
47484;BMP280;54076;50.322;18.650;2023-05-16T18:35:40;97568.66;;;9.54
47484;BMP280;54076;50.322;18.650;2023-05-16T18:40:41;97573.02;;;9.56
47484;BMP280;54076;50.322;18.650;2023-05-16T18:45:47;97573.28;;;9.57
47484;BMP280;54076;50.322;18.650;2023-05-16T18:50:48;97587.77;;;9.51
47484;BMP280;54076;50.322;18.650;2023-05-16T18:55:49;97575.70;;;9.77
47484;BMP280;54076;50.322;18.650;2023-05-16T19:00:50;97571.86;;;9.76
47484;BMP280;54076;50.322;18.650;2023-05-16T19:05:51;97564.36;;;9.70
47484;BMP280;54076;50.322;18.650;2023-05-16T19:10:52;97564.83;;;9.59
47484;BMP280;54076;50.322;18.650;2023-05-16T19:15:53;97573.98;;;9.68
47484;BMP280;54076;50.322;18.650;2023-05-16T19:20:54;97574.16;;;9.66
47484;BMP280;54076;50.322;18.650;2023-05-16T19:25:55;97577.42;;;9.41
47484;BMP280;54076;50.322;18.650;2023-05-16T19:30:56;97574.50;;;9.45
47484;BMP280;54076;50.322;18.650;2023-05-16T19:36:13;97576.23;;;9.44
47484;BMP280;54076;50.322;18.650;2023-05-16T19:41:20;97572.09;;;9.40
47484;BMP280;54076;50.322;18.650;2023-05-16T19:46:24;97567.40;;;9.44
47484;BMP280;54076;50.322;18.650;2023-05-16T19:51:25;97564.17;;;9.50
47484;BMP280;54076;50.322;18.650;2023-05-16T19:56:26;97566.11;;;9.37
47484;BMP280;54076;50.322;18.650;2023-05-16T20:01:27;97572.59;;;9.33
47484;BMP280;54076;50.322;18.650;2023-05-16T20:06:28;97574.30;;;9.17
47484;BMP280;54076;50.322;18.650;2023-05-16T20:11:29;97566.73;;;9.08
47484;BMP280;54076;50.322;18.650;2023-05-16T20:16:30;97560.06;;;9.08
47484;BMP280;54076;50.322;18.650;2023-05-16T20:21:31;97560.41;;;9.16
47484;BMP280;54076;50.322;18.650;2023-05-16T20:26:32;97550.02;;;8.95
47484;BMP280;54076;50.322;18.650;2023-05-16T20:31:33;97548.69;;;8.83
47484;BMP280;54076;50.322;18.650;2023-05-16T20:36:34;97546.52;;;8.71
47484;BMP280;54076;50.322;18.650;2023-05-16T20:41:35;97545.95;;;8.70
47484;BMP280;54076;50.322;18.650;2023-05-16T20:46:36;97540.77;;;8.63
47484;BMP280;54076;50.322;18.650;2023-05-16T20:51:37;97536.56;;;8.51
47484;BMP280;54076;50.322;18.650;2023-05-16T20:56:38;97535.27;;;8.56
47484;BMP280;54076;50.322;18.650;2023-05-16T21:01:39;97535.23;;;8.52
47484;BMP280;54076;50.322;18.650;2023-05-16T21:06:40;97536.13;;;8.60
47484;BMP280;54076;50.322;18.650;2023-05-16T21:11:41;97538.02;;;8.66
47484;BMP280;54076;50.322;18.650;2023-05-16T21:16:42;97527.39;;;8.62
47484;BMP280;54076;50.322;18.650;2023-05-16T21:21:43;97523.62;;;8.54
47484;BMP280;54076;50.322;18.650;2023-05-16T21:26:44;97526.90;;;8.68
47484;BMP280;54076;50.322;18.650;2023-05-16T21:31:45;97517.39;;;8.63
47484;BMP280;54076;50.322;18.650;2023-05-16T21:36:46;97507.26;;;8.58
47484;BMP280;54076;50.322;18.650;2023-05-16T21:41:47;97505.72;;;8.63
47484;BMP280;54076;50.322;18.650;2023-05-16T21:46:48;97507.02;;;8.58
47484;BMP280;54076;50.322;18.650;2023-05-16T21:51:49;97507.43;;;8.58
47484;BMP280;54076;50.322;18.650;2023-05-16T21:56:50;97506.50;;;8.56
47484;BMP280;54076;50.322;18.650;2023-05-16T22:01:51;97504.92;;;8.57
47484;BMP280;54076;50.322;18.650;2023-05-16T22:06:52;97509.34;;;8.70
47484;BMP280;54076;50.322;18.650;2023-05-16T22:11:53;97508.06;;;8.74
47484;BMP280;54076;50.322;18.650;2023-05-16T22:16:54;97506.26;;;8.60
47484;BMP280;54076;50.322;18.650;2023-05-16T22:21:55;97501.58;;;8.55
47484;BMP280;54076;50.322;18.650;2023-05-16T22:26:56;97497.92;;;8.66
47484;BMP280;54076;50.322;18.650;2023-05-16T22:31:57;97499.48;;;8.49
47484;BMP280;54076;50.322;18.650;2023-05-16T22:36:58;97504.52;;;8.45
47484;BMP280;54076;50.322;18.650;2023-05-16T22:41:59;97502.84;;;8.39
47484;BMP280;54076;50.322;18.650;2023-05-16T22:47:03;97505.02;;;8.40
47484;BMP280;54076;50.322;18.650;2023-05-16T22:52:05;97506.96;;;8.51
47484;BMP280;54076;50.322;18.650;2023-05-16T22:57:06;97508.70;;;8.41
47484;BMP280;54076;50.322;18.650;2023-05-16T23:02:07;97512.05;;;8.45
47484;BMP280;54076;50.322;18.650;2023-05-16T23:07:08;97510.16;;;8.32
47484;BMP280;54076;50.322;18.650;2023-05-16T23:12:09;97509.00;;;8.37
47484;BMP280;54076;50.322;18.650;2023-05-16T23:17:10;97508.39;;;8.27
47484;BMP280;54076;50.322;18.650;2023-05-16T23:22:12;97514.91;;;8.17
47484;BMP280;54076;50.322;18.650;2023-05-16T23:27:13;97520.35;;;8.25
47484;BMP280;54076;50.322;18.650;2023-05-16T23:32:14;97523.80;;;8.19
47484;BMP280;54076;50.322;18.650;2023-05-16T23:37:15;97524.50;;;8.18
47484;BMP280;54076;50.322;18.650;2023-05-16T23:42:16;97522.62;;;8.23
47484;BMP280;54076;50.322;18.650;2023-05-16T23:47:17;97524.08;;;8.03
47484;BMP280;54076;50.322;18.650;2023-05-16T23:52:18;97528.96;;;8.11
47484;BMP280;54076;50.322;18.650;2023-05-16T23:57:19;97535.73;;;8.15
